TAF KSFF
KSFF 072336Z 0800/0824 00000KT 2SM BR OVC008 FM080300 VRB01KT 1SM BR VCSH OVC006 FM080700 21004KT 2SM -RA BR OVC008 FM081200 22009KT 3SM -RA BR OVC010 FM081700 22010G20KT P6SM BKN060=
METAR KSFF
WC KSFF
WS KSFF
WV KSFF